sensor_id;sensor_type;location;lat;lon;timestamp;temperature;humidity
69747;DHT22;57018;50.278;19.134;2023-02-03T00:00:40;1.90;90.50
69747;DHT22;57018;50.278;19.134;2023-02-03T00:03:10;1.80;90.10
69747;DHT22;57018;50.278;19.134;2023-02-03T00:05:41;1.90;90.10
69747;DHT22;57018;50.278;19.134;2023-02-03T00:08:11;1.80;90.00
69747;DHT22;57018;50.278;19.134;2023-02-03T00:10:42;1.80;89.90
69747;DHT22;57018;50.278;19.134;2023-02-03T00:13:12;1.70;90.30
69747;DHT22;57018;50.278;19.134;2023-02-03T00:15:43;1.80;90.50
69747;DHT22;57018;50.278;19.134;2023-02-03T00:18:12;1.70;90.10
69747;DHT22;57018;50.278;19.134;2023-02-03T00:20:42;1.70;89.90
69747;DHT22;57018;50.278;19.134;2023-02-03T00:23:13;1.90;89.80
69747;DHT22;57018;50.278;19.134;2023-02-03T00:25:42;2.00;89.70
69747;DHT22;57018;50.278;19.134;2023-02-03T00:28:12;1.90;89.50
69747;DHT22;57018;50.278;19.134;2023-02-03T00:30:42;1.80;89.30
69747;DHT22;57018;50.278;19.134;2023-02-03T00:33:12;2.00;89.40
69747;DHT22;57018;50.278;19.134;2023-02-03T00:35:42;1.80;89.20
69747;DHT22;57018;50.278;19.134;2023-02-03T00:38:11;1.80;89.00
69747;DHT22;57018;50.278;19.134;2023-02-03T00:40:41;1.80;89.10
69747;DHT22;57018;50.278;19.134;2023-02-03T00:43:11;1.90;88.70
69747;DHT22;57018;50.278;19.134;2023-02-03T00:45:41;1.90;88.80
69747;DHT22;57018;50.278;19.134;2023-02-03T00:48:11;1.80;88.70
69747;DHT22;57018;50.278;19.134;2023-02-03T00:50:41;2.00;88.50
69747;DHT22;57018;50.278;19.134;2023-02-03T00:53:11;1.70;88.30
69747;DHT22;57018;50.278;19.134;2023-02-03T00:55:43;1.80;88.50
69747;DHT22;57018;50.278;19.134;2023-02-03T00:58:13;1.80;88.50
69747;DHT22;57018;50.278;19.134;2023-02-03T01:00:43;1.70;88.30
69747;DHT22;57018;50.278;19.134;2023-02-03T01:03:12;1.80;88.00
69747;DHT22;57018;50.278;19.134;2023-02-03T01:05:42;1.70;87.90
69747;DHT22;57018;50.278;19.134;2023-02-03T01:08:12;1.80;87.90
69747;DHT22;57018;50.278;19.134;2023-02-03T01:10:42;1.70;88.00
69747;DHT22;57018;50.278;19.134;2023-02-03T01:13:12;1.80;87.80
69747;DHT22;57018;50.278;19.134;2023-02-03T01:15:47;1.60;87.70
69747;DHT22;57018;50.278;19.134;2023-02-03T01:18:17;1.60;87.70
69747;DHT22;57018;50.278;19.134;2023-02-03T01:20:48;1.70;87.70
69747;DHT22;57018;50.278;19.134;2023-02-03T01:23:18;1.70;87.50
69747;DHT22;57018;50.278;19.134;2023-02-03T01:25:48;1.60;87.20
69747;DHT22;57018;50.278;19.134;2023-02-03T01:28:17;1.60;86.80
69747;DHT22;57018;50.278;19.134;2023-02-03T01:30:47;1.60;87.40
69747;DHT22;57018;50.278;19.134;2023-02-03T01:33:17;1.60;87.40
69747;DHT22;57018;50.278;19.134;2023-02-03T01:35:47;1.50;87.00
69747;DHT22;57018;50.278;19.134;2023-02-03T01:38:17;1.60;87.40
69747;DHT22;57018;50.278;19.134;2023-02-03T01:40:47;1.40;87.30
69747;DHT22;57018;50.278;19.134;2023-02-03T01:43:31;1.50;87.40
69747;DHT22;57018;50.278;19.134;2023-02-03T01:46:03;1.60;87.00
69747;DHT22;57018;50.278;19.134;2023-02-03T01:48:34;1.40;86.40
69747;DHT22;57018;50.278;19.134;2023-02-03T01:51:05;1.50;86.40
69747;DHT22;57018;50.278;19.134;2023-02-03T01:53:36;1.50;86.20
69747;DHT22;57018;50.278;19.134;2023-02-03T01:56:07;1.50;86.10
69747;DHT22;57018;50.278;19.134;2023-02-03T01:58:40;1.50;86.20
69747;DHT22;57018;50.278;19.134;2023-02-03T02:01:10;1.50;86.30
69747;DHT22;57018;50.278;19.134;2023-02-03T02:03:43;1.50;86.00
69747;DHT22;57018;50.278;19.134;2023-02-03T02:06:14;1.60;86.10
69747;DHT22;57018;50.278;19.134;2023-02-03T02:08:46;1.50;86.20
69747;DHT22;57018;50.278;19.134;2023-02-03T02:11:17;1.50;85.70
69747;DHT22;57018;50.278;19.134;2023-02-03T02:13:49;1.50;85.70
69747;DHT22;57018;50.278;19.134;2023-02-03T02:16:24;1.60;84.30
69747;DHT22;57018;50.278;19.134;2023-02-03T02:19:14;1.70;84.50
69747;DHT22;57018;50.278;19.134;2023-02-03T02:21:56;1.60;84.50
69747;DHT22;57018;50.278;19.134;2023-02-03T02:25:03;1.50;84.80
69747;DHT22;57018;50.278;19.134;2023-02-03T02:28:15;1.60;84.90
69747;DHT22;57018;50.278;19.134;2023-02-03T02:31:07;1.50;84.60
69747;DHT22;57018;50.278;19.134;2023-02-03T02:33:50;1.50;84.70
69747;DHT22;57018;50.278;19.134;2023-02-03T02:36:29;1.50;84.50
69747;DHT22;57018;50.278;19.134;2023-02-03T02:39:07;1.50;84.40
69747;DHT22;57018;50.278;19.134;2023-02-03T02:41:42;1.40;84.40
69747;DHT22;57018;50.278;19.134;2023-02-03T02:44:18;1.40;84.40
69747;DHT22;57018;50.278;19.134;2023-02-03T02:46:51;1.50;84.00
69747;DHT22;57018;50.278;19.134;2023-02-03T02:49:26;1.40;84.30
69747;DHT22;57018;50.278;19.134;2023-02-03T02:51:58;1.50;84.30
69747;DHT22;57018;50.278;19.134;2023-02-03T02:54:32;1.40;84.00
69747;DHT22;57018;50.278;19.134;2023-02-03T02:57:04;1.50;83.90
69747;DHT22;57018;50.278;19.134;2023-02-03T02:59:35;1.30;84.20
69747;DHT22;57018;50.278;19.134;2023-02-03T03:02:04;1.40;84.00
69747;DHT22;57018;50.278;19.134;2023-02-03T03:04:35;1.30;84.00
69747;DHT22;57018;50.278;19.134;2023-02-03T03:07:07;1.30;84.00
69747;DHT22;57018;50.278;19.134;2023-02-03T03:09:42;1.20;83.90
69747;DHT22;57018;50.278;19.134;2023-02-03T03:12:15;1.30;83.90
69747;DHT22;57018;50.278;19.134;2023-02-03T03:14:50;1.10;84.10
69747;DHT22;57018;50.278;19.134;2023-02-03T03:17:26;1.00;84.00
69747;DHT22;57018;50.278;19.134;2023-02-03T03:19:59;0.90;84.40
69747;DHT22;57018;50.278;19.134;2023-02-03T03:22:34;0.80;85.30
69747;DHT22;57018;50.278;19.134;2023-02-03T03:25:08;0.80;85.50
69747;DHT22;57018;50.278;19.134;2023-02-03T03:27:43;0.80;85.80
69747;DHT22;57018;50.278;19.134;2023-02-03T03:30:19;0.70;86.00
69747;DHT22;57018;50.278;19.134;2023-02-03T03:32:51;0.60;86.10
69747;DHT22;57018;50.278;19.134;2023-02-03T03:35:23;0.60;86.10
69747;DHT22;57018;50.278;19.134;2023-02-03T03:37:59;0.70;86.40
69747;DHT22;57018;50.278;19.134;2023-02-03T03:40:37;0.60;86.30
69747;DHT22;57018;50.278;19.134;2023-02-03T03:43:12;0.60;86.40
69747;DHT22;57018;50.278;19.134;2023-02-03T03:45:48;0.60;86.50
69747;DHT22;57018;50.278;19.134;2023-02-03T03:48:29;0.70;86.70
69747;DHT22;57018;50.278;19.134;2023-02-03T03:51:04;0.80;86.70
69747;DHT22;57018;50.278;19.134;2023-02-03T03:53:37;0.70;86.60
69747;DHT22;57018;50.278;19.134;2023-02-03T03:56:13;0.70;86.20
69747;DHT22;57018;50.278;19.134;2023-02-03T03:58:47;0.70;86.60
69747;DHT22;57018;50.278;19.134;2023-02-03T04:01:19;0.60;86.60
69747;DHT22;57018;50.278;19.134;2023-02-03T04:03:54;0.60;86.80
69747;DHT22;57018;50.278;19.134;2023-02-03T04:06:25;0.70;86.90
69747;DHT22;57018;50.278;19.134;2023-02-03T04:08:55;0.60;86.80
69747;DHT22;57018;50.278;19.134;2023-02-03T04:11:25;0.70;86.80
69747;DHT22;57018;50.278;19.134;2023-02-03T04:14:13;0.50;86.80
69747;DHT22;57018;50.278;19.134;2023-02-03T04:16:42;0.50;87.10
69747;DHT22;57018;50.278;19.134;2023-02-03T04:19:12;0.50;87.40
69747;DHT22;57018;50.278;19.134;2023-02-03T04:21:42;0.40;88.30
69747;DHT22;57018;50.278;19.134;2023-02-03T04:24:12;0.20;88.50
69747;DHT22;57018;50.278;19.134;2023-02-03T04:26:43;0.30;88.90
69747;DHT22;57018;50.278;19.134;2023-02-03T04:29:13;0.20;89.30
69747;DHT22;57018;50.278;19.134;2023-02-03T04:31:43;0.20;89.50
69747;DHT22;57018;50.278;19.134;2023-02-03T04:34:12;0.20;89.20
69747;DHT22;57018;50.278;19.134;2023-02-03T04:36:42;0.30;88.80
69747;DHT22;57018;50.278;19.134;2023-02-03T04:39:12;0.20;88.70
69747;DHT22;57018;50.278;19.134;2023-02-03T04:41:42;0.20;89.00
69747;DHT22;57018;50.278;19.134;2023-02-03T04:44:12;0.20;89.10
69747;DHT22;57018;50.278;19.134;2023-02-03T04:46:42;0.20;89.00
69747;DHT22;57018;50.278;19.134;2023-02-03T04:49:11;0.20;89.30
69747;DHT22;57018;50.278;19.134;2023-02-03T04:51:41;0.30;89.20
69747;DHT22;57018;50.278;19.134;2023-02-03T04:54:12;0.30;88.90
69747;DHT22;57018;50.278;19.134;2023-02-03T04:56:42;0.30;89.00
69747;DHT22;57018;50.278;19.134;2023-02-03T04:59:12;0.30;89.00
69747;DHT22;57018;50.278;19.134;2023-02-03T05:01:41;0.40;88.80
69747;DHT22;57018;50.278;19.134;2023-02-03T05:04:11;0.30;88.80
69747;DHT22;57018;50.278;19.134;2023-02-03T05:06:41;0.20;88.70
69747;DHT22;57018;50.278;19.134;2023-02-03T05:09:11;0.20;88.80
69747;DHT22;57018;50.278;19.134;2023-02-03T05:11:41;0.30;89.30
69747;DHT22;57018;50.278;19.134;2023-02-03T05:14:10;0.20;89.40
69747;DHT22;57018;50.278;19.134;2023-02-03T05:16:40;0.20;89.50
69747;DHT22;57018;50.278;19.134;2023-02-03T05:19:10;0.10;89.40
69747;DHT22;57018;50.278;19.134;2023-02-03T05:21:40;0.20;89.50
69747;DHT22;57018;50.278;19.134;2023-02-03T05:24:10;0.20;89.30
69747;DHT22;57018;50.278;19.134;2023-02-03T05:26:40;0.20;89.80
69747;DHT22;57018;50.278;19.134;2023-02-03T05:29:10;0.20;89.80
69747;DHT22;57018;50.278;19.134;2023-02-03T05:31:40;0.10;90.00
69747;DHT22;57018;50.278;19.134;2023-02-03T05:34:10;0.20;90.00
69747;DHT22;57018;50.278;19.134;2023-02-03T05:36:40;0.20;90.30
69747;DHT22;57018;50.278;19.134;2023-02-03T05:39:10;0.20;90.60
69747;DHT22;57018;50.278;19.134;2023-02-03T05:41:40;0.30;90.10
69747;DHT22;57018;50.278;19.134;2023-02-03T05:44:23;0.30;90.40
69747;DHT22;57018;50.278;19.134;2023-02-03T05:46:55;0.20;90.40
69747;DHT22;57018;50.278;19.134;2023-02-03T05:49:26;0.40;90.30
69747;DHT22;57018;50.278;19.134;2023-02-03T05:51:56;0.40;90.20
69747;DHT22;57018;50.278;19.134;2023-02-03T05:54:26;0.40;89.90
69747;DHT22;57018;50.278;19.134;2023-02-03T05:56:56;0.40;90.10
69747;DHT22;57018;50.278;19.134;2023-02-03T05:59:26;0.40;90.50
69747;DHT22;57018;50.278;19.134;2023-02-03T06:01:56;0.50;90.10
69747;DHT22;57018;50.278;19.134;2023-02-03T06:04:26;0.50;90.10
69747;DHT22;57018;50.278;19.134;2023-02-03T06:06:55;0.60;90.10
69747;DHT22;57018;50.278;19.134;2023-02-03T06:09:25;0.50;89.60
69747;DHT22;57018;50.278;19.134;2023-02-03T06:11:55;0.70;89.70
69747;DHT22;57018;50.278;19.134;2023-02-03T06:14:25;0.70;89.40
69747;DHT22;57018;50.278;19.134;2023-02-03T06:16:55;0.70;89.80
69747;DHT22;57018;50.278;19.134;2023-02-03T06:19:25;0.90;89.10
69747;DHT22;57018;50.278;19.134;2023-02-03T06:21:55;0.90;89.00
69747;DHT22;57018;50.278;19.134;2023-02-03T06:24:25;0.80;88.80
69747;DHT22;57018;50.278;19.134;2023-02-03T06:26:55;0.90;88.70
69747;DHT22;57018;50.278;19.134;2023-02-03T06:29:24;1.10;88.90
69747;DHT22;57018;50.278;19.134;2023-02-03T06:31:54;1.00;88.60
69747;DHT22;57018;50.278;19.134;2023-02-03T06:34:24;1.00;88.30
69747;DHT22;57018;50.278;19.134;2023-02-03T06:36:54;1.00;88.80
69747;DHT22;57018;50.278;19.134;2023-02-03T06:39:24;1.00;88.50
69747;DHT22;57018;50.278;19.134;2023-02-03T06:41:54;1.10;88.00
69747;DHT22;57018;50.278;19.134;2023-02-03T06:44:24;1.30;87.80
69747;DHT22;57018;50.278;19.134;2023-02-03T06:46:54;1.30;87.60
69747;DHT22;57018;50.278;19.134;2023-02-03T06:49:24;1.30;87.60
69747;DHT22;57018;50.278;19.134;2023-02-03T06:51:53;1.40;87.50
69747;DHT22;57018;50.278;19.134;2023-02-03T06:54:24;1.40;87.10
69747;DHT22;57018;50.278;19.134;2023-02-03T06:56:53;1.40;86.70
69747;DHT22;57018;50.278;19.134;2023-02-03T06:59:23;1.50;86.90
69747;DHT22;57018;50.278;19.134;2023-02-03T07:01:53;1.70;86.30
69747;DHT22;57018;50.278;19.134;2023-02-03T07:04:23;1.50;85.70
69747;DHT22;57018;50.278;19.134;2023-02-03T07:06:56;1.70;85.80
69747;DHT22;57018;50.278;19.134;2023-02-03T07:09:26;1.80;85.90
69747;DHT22;57018;50.278;19.134;2023-02-03T07:11:56;1.90;85.30
69747;DHT22;57018;50.278;19.134;2023-02-03T07:14:25;2.00;84.90
69747;DHT22;57018;50.278;19.134;2023-02-03T07:16:55;1.80;84.10
69747;DHT22;57018;50.278;19.134;2023-02-03T07:19:25;1.70;83.80
69747;DHT22;57018;50.278;19.134;2023-02-03T07:21:55;1.90;83.70
69747;DHT22;57018;50.278;19.134;2023-02-03T07:24:25;2.10;83.50
69747;DHT22;57018;50.278;19.134;2023-02-03T07:26:55;2.10;83.50
69747;DHT22;57018;50.278;19.134;2023-02-03T07:29:25;2.00;82.90
69747;DHT22;57018;50.278;19.134;2023-02-03T07:31:55;2.00;82.60
69747;DHT22;57018;50.278;19.134;2023-02-03T07:34:25;2.20;82.10
69747;DHT22;57018;50.278;19.134;2023-02-03T07:36:55;2.20;82.00
69747;DHT22;57018;50.278;19.134;2023-02-03T07:39:25;2.30;81.60
69747;DHT22;57018;50.278;19.134;2023-02-03T07:41:55;2.50;81.20
69747;DHT22;57018;50.278;19.134;2023-02-03T07:44:25;2.40;80.20
69747;DHT22;57018;50.278;19.134;2023-02-03T07:46:55;2.50;80.40
69747;DHT22;57018;50.278;19.134;2023-02-03T07:49:24;2.50;79.70
69747;DHT22;57018;50.278;19.134;2023-02-03T07:51:55;2.70;79.60
69747;DHT22;57018;50.278;19.134;2023-02-03T07:54:25;2.60;78.50
69747;DHT22;57018;50.278;19.134;2023-02-03T07:56:54;2.60;77.80
69747;DHT22;57018;50.278;19.134;2023-02-03T07:59:25;2.70;78.30
69747;DHT22;57018;50.278;19.134;2023-02-03T08:01:54;2.40;77.90
69747;DHT22;57018;50.278;19.134;2023-02-03T08:04:24;2.60;78.00
69747;DHT22;57018;50.278;19.134;2023-02-03T08:06:54;2.70;77.60
69747;DHT22;57018;50.278;19.134;2023-02-03T08:09:24;2.90;77.90
69747;DHT22;57018;50.278;19.134;2023-02-03T08:11:54;2.70;76.80
69747;DHT22;57018;50.278;19.134;2023-02-03T08:14:24;2.90;76.70
69747;DHT22;57018;50.278;19.134;2023-02-03T08:16:54;3.10;76.50
69747;DHT22;57018;50.278;19.134;2023-02-03T08:19:24;3.20;75.50
69747;DHT22;57018;50.278;19.134;2023-02-03T08:21:54;3.40;74.40
69747;DHT22;57018;50.278;19.134;2023-02-03T08:24:26;3.40;74.00
69747;DHT22;57018;50.278;19.134;2023-02-03T08:26:56;3.40;74.20
69747;DHT22;57018;50.278;19.134;2023-02-03T08:29:27;3.50;74.30
69747;DHT22;57018;50.278;19.134;2023-02-03T08:31:57;3.70;73.00
69747;DHT22;57018;50.278;19.134;2023-02-03T08:34:27;3.80;72.50
69747;DHT22;57018;50.278;19.134;2023-02-03T08:36:57;3.60;71.80
69747;DHT22;57018;50.278;19.134;2023-02-03T08:39:27;3.80;72.80
69747;DHT22;57018;50.278;19.134;2023-02-03T08:41:57;3.80;72.60
69747;DHT22;57018;50.278;19.134;2023-02-03T08:44:26;3.80;72.40
69747;DHT22;57018;50.278;19.134;2023-02-03T08:46:57;3.90;72.20
69747;DHT22;57018;50.278;19.134;2023-02-03T08:49:28;4.20;72.50
69747;DHT22;57018;50.278;19.134;2023-02-03T08:51:59;4.30;71.70
69747;DHT22;57018;50.278;19.134;2023-02-03T08:54:29;4.50;72.00
69747;DHT22;57018;50.278;19.134;2023-02-03T08:56:59;4.70;71.50
69747;DHT22;57018;50.278;19.134;2023-02-03T08:59:29;4.70;72.30
69747;DHT22;57018;50.278;19.134;2023-02-03T09:02:04;4.70;73.20
69747;DHT22;57018;50.278;19.134;2023-02-03T09:04:34;4.70;74.60
69747;DHT22;57018;50.278;19.134;2023-02-03T09:07:04;4.50;76.70
69747;DHT22;57018;50.278;19.134;2023-02-03T09:09:34;4.70;78.00
69747;DHT22;57018;50.278;19.134;2023-02-03T09:12:06;4.70;79.40
69747;DHT22;57018;50.278;19.134;2023-02-03T09:14:35;4.70;80.00
69747;DHT22;57018;50.278;19.134;2023-02-03T09:17:06;4.80;80.90
69747;DHT22;57018;50.278;19.134;2023-02-03T09:19:37;4.80;81.40
69747;DHT22;57018;50.278;19.134;2023-02-03T09:22:07;4.70;81.30
69747;DHT22;57018;50.278;19.134;2023-02-03T09:24:36;4.70;82.30
69747;DHT22;57018;50.278;19.134;2023-02-03T09:27:06;4.60;83.00
69747;DHT22;57018;50.278;19.134;2023-02-03T09:29:36;4.50;84.00
69747;DHT22;57018;50.278;19.134;2023-02-03T09:32:06;4.10;85.10
69747;DHT22;57018;50.278;19.134;2023-02-03T09:34:38;4.20;86.60
69747;DHT22;57018;50.278;19.134;2023-02-03T09:37:08;4.20;86.80
69747;DHT22;57018;50.278;19.134;2023-02-03T09:39:38;3.90;88.10
69747;DHT22;57018;50.278;19.134;2023-02-03T09:42:28;4.10;88.70
69747;DHT22;57018;50.278;19.134;2023-02-03T09:45:12;4.00;89.30
69747;DHT22;57018;50.278;19.134;2023-02-03T09:47:44;3.90;89.10
69747;DHT22;57018;50.278;19.134;2023-02-03T09:50:22;4.00;90.10
69747;DHT22;57018;50.278;19.134;2023-02-03T09:52:53;4.00;90.00
69747;DHT22;57018;50.278;19.134;2023-02-03T09:55:29;4.00;90.50
69747;DHT22;57018;50.278;19.134;2023-02-03T09:58:05;4.10;90.50
69747;DHT22;57018;50.278;19.134;2023-02-03T10:00:42;4.00;91.20
69747;DHT22;57018;50.278;19.134;2023-02-03T10:03:22;4.00;91.70
69747;DHT22;57018;50.278;19.134;2023-02-03T10:06:02;3.70;91.70
69747;DHT22;57018;50.278;19.134;2023-02-03T10:08:47;3.80;92.70
69747;DHT22;57018;50.278;19.134;2023-02-03T10:11:27;3.60;93.20
69747;DHT22;57018;50.278;19.134;2023-02-03T10:14:12;3.70;93.50
69747;DHT22;57018;50.278;19.134;2023-02-03T10:17:01;3.70;93.20
69747;DHT22;57018;50.278;19.134;2023-02-03T10:19:41;3.60;93.00
69747;DHT22;57018;50.278;19.134;2023-02-03T10:22:16;3.70;94.10
69747;DHT22;57018;50.278;19.134;2023-02-03T10:24:51;3.70;94.20
69747;DHT22;57018;50.278;19.134;2023-02-03T10:27:24;3.90;93.80
69747;DHT22;57018;50.278;19.134;2023-02-03T10:30:00;3.70;94.20
69747;DHT22;57018;50.278;19.134;2023-02-03T10:32:30;3.70;94.20
69747;DHT22;57018;50.278;19.134;2023-02-03T10:35:01;3.60;94.90
69747;DHT22;57018;50.278;19.134;2023-02-03T10:37:38;3.70;95.60
69747;DHT22;57018;50.278;19.134;2023-02-03T10:40:13;3.40;95.90
69747;DHT22;57018;50.278;19.134;2023-02-03T10:42:46;3.40;96.60
69747;DHT22;57018;50.278;19.134;2023-02-03T10:45:38;3.40;96.80
69747;DHT22;57018;50.278;19.134;2023-02-03T10:48:14;3.30;96.60
69747;DHT22;57018;50.278;19.134;2023-02-03T10:50:48;3.30;97.00
69747;DHT22;57018;50.278;19.134;2023-02-03T10:53:24;3.20;98.00
69747;DHT22;57018;50.278;19.134;2023-02-03T10:56:03;3.10;98.10
69747;DHT22;57018;50.278;19.134;2023-02-03T10:58:34;2.90;98.20
69747;DHT22;57018;50.278;19.134;2023-02-03T11:01:09;2.80;98.90
69747;DHT22;57018;50.278;19.134;2023-02-03T11:03:41;3.10;99.30
69747;DHT22;57018;50.278;19.134;2023-02-03T11:06:14;3.00;99.00
69747;DHT22;57018;50.278;19.134;2023-02-03T11:08:46;3.20;99.50
69747;DHT22;57018;50.278;19.134;2023-02-03T11:11:21;3.00;99.00
69747;DHT22;57018;50.278;19.134;2023-02-03T11:14:10;3.10;99.30
69747;DHT22;57018;50.278;19.134;2023-02-03T11:16:41;3.00;98.90
69747;DHT22;57018;50.278;19.134;2023-02-03T11:19:17;3.00;99.60
69747;DHT22;57018;50.278;19.134;2023-02-03T11:21:49;3.00;99.70
69747;DHT22;57018;50.278;19.134;2023-02-03T11:24:21;2.90;99.70
69747;DHT22;57018;50.278;19.134;2023-02-03T11:26:55;3.00;99.90
69747;DHT22;57018;50.278;19.134;2023-02-03T11:29:27;2.90;99.90
69747;DHT22;57018;50.278;19.134;2023-02-03T11:32:00;3.00;99.90
69747;DHT22;57018;50.278;19.134;2023-02-03T11:34:33;3.00;99.90
69747;DHT22;57018;50.278;19.134;2023-02-03T11:37:26;3.00;99.90
69747;DHT22;57018;50.278;19.134;2023-02-03T11:40:24;2.90;99.90
69747;DHT22;57018;50.278;19.134;2023-02-03T11:43:04;2.90;99.90
69747;DHT22;57018;50.278;19.134;2023-02-03T11:45:39;2.80;99.90
69747;DHT22;57018;50.278;19.134;2023-02-03T11:48:19;2.90;99.90
69747;DHT22;57018;50.278;19.134;2023-02-03T11:50:56;3.00;99.90
69747;DHT22;57018;50.278;19.134;2023-02-03T11:53:49;2.90;99.90
69747;DHT22;57018;50.278;19.134;2023-02-03T11:56:40;3.00;99.90
69747;DHT22;57018;50.278;19.134;2023-02-03T11:59:27;2.90;99.90
69747;DHT22;57018;50.278;19.134;2023-02-03T12:02:20;3.30;99.90
69747;DHT22;57018;50.278;19.134;2023-02-03T12:05:08;3.10;99.90
69747;DHT22;57018;50.278;19.134;2023-02-03T12:07:52;3.00;99.90
69747;DHT22;57018;50.278;19.134;2023-02-03T12:10:38;2.90;99.90
69747;DHT22;57018;50.278;19.134;2023-02-03T12:13:22;3.00;99.90
69747;DHT22;57018;50.278;19.134;2023-02-03T12:16:06;3.10;99.90
69747;DHT22;57018;50.278;19.134;2023-02-03T12:18:49;3.00;99.90
69747;DHT22;57018;50.278;19.134;2023-02-03T12:21:36;3.00;99.90
69747;DHT22;57018;50.278;19.134;2023-02-03T12:24:17;3.00;99.90
69747;DHT22;57018;50.278;19.134;2023-02-03T12:26:56;3.00;99.90
69747;DHT22;57018;50.278;19.134;2023-02-03T12:29:32;3.20;99.90
69747;DHT22;57018;50.278;19.134;2023-02-03T12:32:13;3.00;99.90
69747;DHT22;57018;50.278;19.134;2023-02-03T12:34:49;3.00;99.90
69747;DHT22;57018;50.278;19.134;2023-02-03T12:37:25;2.90;99.90
69747;DHT22;57018;50.278;19.134;2023-02-03T12:39:59;3.20;99.90
69747;DHT22;57018;50.278;19.134;2023-02-03T12:42:34;3.00;99.90
69747;DHT22;57018;50.278;19.134;2023-02-03T12:45:09;3.00;99.90
69747;DHT22;57018;50.278;19.134;2023-02-03T12:47:44;3.20;99.90
69747;DHT22;57018;50.278;19.134;2023-02-03T12:50:18;3.10;99.90
69747;DHT22;57018;50.278;19.134;2023-02-03T12:52:53;3.40;99.90
69747;DHT22;57018;50.278;19.134;2023-02-03T12:55:30;3.30;99.90
69747;DHT22;57018;50.278;19.134;2023-02-03T12:58:04;3.20;99.90
69747;DHT22;57018;50.278;19.134;2023-02-03T13:00:42;3.10;99.90
69747;DHT22;57018;50.278;19.134;2023-02-03T13:03:19;2.90;99.90
69747;DHT22;57018;50.278;19.134;2023-02-03T13:05:55;3.10;99.90
69747;DHT22;57018;50.278;19.134;2023-02-03T13:08:32;3.10;99.90
69747;DHT22;57018;50.278;19.134;2023-02-03T13:11:12;3.10;99.90
69747;DHT22;57018;50.278;19.134;2023-02-03T13:13:47;3.20;99.90
69747;DHT22;57018;50.278;19.134;2023-02-03T13:16:22;3.20;99.90
69747;DHT22;57018;50.278;19.134;2023-02-03T13:18:57;3.30;99.90
69747;DHT22;57018;50.278;19.134;2023-02-03T13:21:29;3.20;99.90
69747;DHT22;57018;50.278;19.134;2023-02-03T13:23:59;3.00;99.90
69747;DHT22;57018;50.278;19.134;2023-02-03T13:26:52;2.80;99.90
69747;DHT22;57018;50.278;19.134;2023-02-03T13:29:48;2.90;99.90
69747;DHT22;57018;50.278;19.134;2023-02-03T13:32:31;3.00;99.90
69747;DHT22;57018;50.278;19.134;2023-02-03T13:35:21;2.90;99.90
69747;DHT22;57018;50.278;19.134;2023-02-03T13:38:16;2.70;99.90
69747;DHT22;57018;50.278;19.134;2023-02-03T13:41:00;2.80;99.90
69747;DHT22;57018;50.278;19.134;2023-02-03T13:43:33;2.60;99.90
69747;DHT22;57018;50.278;19.134;2023-02-03T13:46:05;2.60;99.90
69747;DHT22;57018;50.278;19.134;2023-02-03T13:48:38;2.80;99.90
69747;DHT22;57018;50.278;19.134;2023-02-03T13:51:17;2.70;99.90
69747;DHT22;57018;50.278;19.134;2023-02-03T13:53:50;2.70;99.90
69747;DHT22;57018;50.278;19.134;2023-02-03T13:56:22;2.70;99.90
69747;DHT22;57018;50.278;19.134;2023-02-03T13:59:05;2.80;99.90
69747;DHT22;57018;50.278;19.134;2023-02-03T14:01:37;2.60;99.90
69747;DHT22;57018;50.278;19.134;2023-02-03T14:04:36;2.70;99.90
69747;DHT22;57018;50.278;19.134;2023-02-03T14:07:03;2.70;99.90
69747;DHT22;57018;50.278;19.134;2023-02-03T14:09:46;2.80;99.90
69747;DHT22;57018;50.278;19.134;2023-02-03T14:15:26;2.80;99.90
69747;DHT22;57018;50.278;19.134;2023-02-03T14:21:15;2.80;99.90
69747;DHT22;57018;50.278;19.134;2023-02-03T14:24:00;2.90;99.90
69747;DHT22;57018;50.278;19.134;2023-02-03T14:26:38;2.90;99.90
69747;DHT22;57018;50.278;19.134;2023-02-03T14:29:23;2.90;99.90
69747;DHT22;57018;50.278;19.134;2023-02-03T14:31:57;2.90;99.90
69747;DHT22;57018;50.278;19.134;2023-02-03T14:34:31;2.90;99.90
69747;DHT22;57018;50.278;19.134;2023-02-03T14:37:15;2.70;99.90
69747;DHT22;57018;50.278;19.134;2023-02-03T14:43:28;3.00;99.90
69747;DHT22;57018;50.278;19.134;2023-02-03T14:46:18;2.90;99.90
69747;DHT22;57018;50.278;19.134;2023-02-03T14:49:03;3.00;99.90
69747;DHT22;57018;50.278;19.134;2023-02-03T14:51:50;2.90;99.90
69747;DHT22;57018;50.278;19.134;2023-02-03T14:54:36;2.90;99.90
69747;DHT22;57018;50.278;19.134;2023-02-03T14:57:17;3.10;99.90
69747;DHT22;57018;50.278;19.134;2023-02-03T14:59:55;3.30;99.90
69747;DHT22;57018;50.278;19.134;2023-02-03T15:02:27;3.10;99.90
69747;DHT22;57018;50.278;19.134;2023-02-03T15:07:58;3.20;99.90
69747;DHT22;57018;50.278;19.134;2023-02-03T15:10:41;3.30;99.90
69747;DHT22;57018;50.278;19.134;2023-02-03T15:13:25;3.20;99.90
69747;DHT22;57018;50.278;19.134;2023-02-03T15:15:57;3.20;99.90
69747;DHT22;57018;50.278;19.134;2023-02-03T15:18:31;3.00;99.90
69747;DHT22;57018;50.278;19.134;2023-02-03T15:21:04;2.90;99.90
69747;DHT22;57018;50.278;19.134;2023-02-03T15:23:39;3.00;99.90
69747;DHT22;57018;50.278;19.134;2023-02-03T15:26:14;3.30;99.90
69747;DHT22;57018;50.278;19.134;2023-02-03T15:28:54;3.00;99.90
69747;DHT22;57018;50.278;19.134;2023-02-03T15:31:30;2.90;99.90
69747;DHT22;57018;50.278;19.134;2023-02-03T15:34:05;2.90;99.90
69747;DHT22;57018;50.278;19.134;2023-02-03T15:36:43;2.90;99.90
69747;DHT22;57018;50.278;19.134;2023-02-03T15:39:25;2.80;99.90
69747;DHT22;57018;50.278;19.134;2023-02-03T15:41:58;3.00;99.90
69747;DHT22;57018;50.278;19.134;2023-02-03T15:44:33;2.90;99.90
69747;DHT22;57018;50.278;19.134;2023-02-03T15:47:14;3.30;99.90
69747;DHT22;57018;50.278;19.134;2023-02-03T15:49:56;3.20;99.90
69747;DHT22;57018;50.278;19.134;2023-02-03T15:52:28;3.20;99.90
69747;DHT22;57018;50.278;19.134;2023-02-03T15:55:05;3.40;99.90
69747;DHT22;57018;50.278;19.134;2023-02-03T15:57:49;3.20;99.90
69747;DHT22;57018;50.278;19.134;2023-02-03T16:00:36;3.30;99.90
69747;DHT22;57018;50.278;19.134;2023-02-03T16:03:17;3.40;99.90
69747;DHT22;57018;50.278;19.134;2023-02-03T16:05:49;3.40;99.90
69747;DHT22;57018;50.278;19.134;2023-02-03T16:08:41;3.40;99.90
69747;DHT22;57018;50.278;19.134;2023-02-03T16:11:25;3.60;99.90
69747;DHT22;57018;50.278;19.134;2023-02-03T16:13:56;3.40;99.90
69747;DHT22;57018;50.278;19.134;2023-02-03T16:16:30;3.70;99.90
69747;DHT22;57018;50.278;19.134;2023-02-03T16:19:03;3.40;99.90
69747;DHT22;57018;50.278;19.134;2023-02-03T16:21:35;3.50;99.90
69747;DHT22;57018;50.278;19.134;2023-02-03T16:26:49;3.40;99.90
69747;DHT22;57018;50.278;19.134;2023-02-03T16:29:19;3.60;99.90